Lawn, Pennsylvania
Current Conditions -  °F | °C
As of 11:56 PM on Monday 20 Oct 2014 (Local Time) from KMDT Reporting Station
Overcast Overcast  
Wind Chill: 54°   Ceiling: 7000
Heat Index: 54°   Visibility: 10mi
Dew Point: 49°   Wind: 0mph
Humidity: 83%   Direction: NA
Pressure: 29.91"   Gusts: NA
Location:  40.22°N, 76.54°W
Report Text: KMDT 210356Z 00000KT 10SM BKN070 OVC095 12/09 A2991 RMK AO2 SLPNO T01220094
Loading
Personal Weather Stations






























Interactive Weather Map
Tropical Storm Tracking
New forecast layout! Learn more

10-Day Weather Forecast

Advertisements
Track Severe Weather on mobile